• Join FlightAware (Why Join?)
  • Login
  • US Flag 
11:41PM EST


 

Airport Tracker/Info


-or-


 

Live Flight TrackerFlight Track Log ✈ ELT218 ✈ 28-Sep-2013 ✈ KDLH - KFCM

Flight Track Log - Related Links

Times and Time Zones

All times are in EDT time to prevent confusion due to time zone crossing. See the ELT218 flight status page for this flight to view local times or setup timezone preferences in your user account.

Time Position Orientation Groundspeed Altitude Reporting Facility
EDT Latitude Longitude Course Direction KTS MPH feet Rate Location/Type
01:54PM 46.8114 -92.1928 233° Southwest 115 132 5,600  Level Minneapolis Center
01:55PM 46.7872 -92.2250 222° Southwest 116 133 7,400 1,860 Climbing Minneapolis Center
01:56PM 46.7583 -92.2667 225° Southwest 118 136 9,500 1,740 Climbing Minneapolis Center
01:57PM 46.7306 -92.3067 225° Southwest 131 151 11,100 1,440 Climbing Minneapolis Center
01:58PM 46.5269 -92.3983 224° Southwest  Level Estimated
01:58PM 46.7006 -92.3497 225° Southwest 144 166 12,500  Level Minneapolis Center
01:59PM 46.4922 -92.4648 233° Southwest  Level FlightAware Approximate
01:59PM 46.6717 -92.3922 225° Southwest 148 170 13,800  Level Minneapolis Center
02:00PM 46.6383 -92.4378 223° Southwest 158 182 13,800  Level Minneapolis Center
02:01PM 46.5967 -92.4822 216° Southwest 178 205 13,800  Level Minneapolis Center
02:02PM 46.5483 -92.5333 216° Southwest 180 207 13,800  Level Minneapolis Center
02:03PM 46.5056 -92.5789 216° Southwest 186 214 13,800  Level Minneapolis Center
02:04PM 46.4597 -92.6269 216° Southwest 198 228 13,800  Level Minneapolis Center
02:05PM 46.4147 -92.6761 217° Southwest 202 232 13,800  Level Minneapolis Center
02:06PM 46.3694 -92.7214 215° Southwest 200 230 13,800  Level Minneapolis Center
02:07PM 46.3256 -92.7692 217° Southwest 199 229 13,800  Level Minneapolis Center
02:08PM 46.2733 -92.8214 215° Southwest 194 223 13,800  Level Minneapolis Center
02:09PM 46.2300 -92.8678 217° Southwest 194 223 13,800  Level Minneapolis Center
02:10PM 46.1853 -92.9136 215° Southwest 194 223 13,900  Climbing Minneapolis Center
02:11PM 46.1419 -92.9594 216° Southwest 195 224 13,900 -60 Level Minneapolis Center
02:12PM 46.1000 -93.0019 215° Southwest 190 219 13,800 -360 Descending Minneapolis Center
02:13PM 46.0539 -93.0483 215° Southwest 196 226 13,200 -660 Descending Minneapolis Center
02:14PM 45.9986 -93.1078 217° Southwest 203 234 12,500 -660 Descending Minneapolis Center
02:15PM 45.9508 -93.1569 216° Southwest 207 238 11,900 -660 Descending Minneapolis Center
02:16PM 45.9036 -93.2036 215° Southwest 208 239 11,200 -660 Descending Minneapolis Center
02:17PM 45.8567 -93.2547 217° Southwest 211 243 10,600 -600 Descending Minneapolis Center
02:19PM 45.8097 -93.3033 216° Southwest 210 242 10,000 -600 Descending Minneapolis Center
02:20PM 45.7639 -93.3503 216° Southwest 205 236 9,400 -660 Descending Minneapolis Center
02:21PM 45.7078 -93.4069 215° Southwest 206 237 8,700 -600 Descending Minneapolis Center
02:22PM 45.6619 -93.4539 216° Southwest 204 235 8,200 -540 Descending Minneapolis Center
02:23PM 45.6158 -93.5017 216° Southwest 204 235 7,700 -540 Descending Minneapolis Center
02:24PM 45.5689 -93.5489 215° Southwest 207 238 7,200 -300 Descending Minneapolis Center
02:25PM 45.5150 -93.5753 199° South 223 257 7,100 -300 Descending Minneapolis Center
02:26PM 45.4525 -93.5486 163° South 235 270 6,700 -780 Descending Minneapolis Center
02:27PM 45.3717 -93.5608 186° South 242 278 5,500 -1,080 Descending Minneapolis Center
02:28PM 45.3083 -93.5814 193° South 235 270 4,500 -1,020 Descending Minneapolis Center
02:29PM 45.2461 -93.5997 192° South 230 265 3,500 -720 Descending Minneapolis Center
02:30PM 45.1839 -93.6203 193° South 231 266 3,100 -240 Descending Minneapolis Center
02:31PM 45.1250 -93.6403 193° South 220 253 3,100  Level Minneapolis Center
02:32PM 45.0550 -93.6633 193° South 217 250 3,100  Level Minneapolis Center
02:33PM 44.9961 -93.6831 193° South 218 251 3,100  Level Minneapolis Center
02:34PM 44.9375 -93.7028 193° South 218 251 3,100  Level Minneapolis Center
02:35PM 44.8783 -93.7106 185° South 220 253 3,100  Level Minneapolis Center
02:36PM 44.8506 -93.6297 116° Southeast 232 267 3,100 -480 Level Minneapolis Center
02:37PM 44.8414 -93.5581 100° East 186 214 2,200 -540 Descending Minneapolis Center
02:38PM 44.8133 -93.4867 119° Southeast 179 206 2,100 -300 Descending Minneapolis Center
02:39PM 44.8108 -93.4278 93° East 163 188 1,600 -600 Descending Minneapolis Center
02:40PM 44.8278 -93.4586 308° West 117 135 900 -720 Descending Minneapolis Center